sensor_id;sensor_type;location;lat;lon;timestamp;temperature;humidity
23233;DHT22;11785;49.500;8.288;2023-04-09T00:02:23;9.50;78.60
23233;DHT22;11785;49.500;8.288;2023-04-09T00:04:49;9.40;79.50
23233;DHT22;11785;49.500;8.288;2023-04-09T00:07:15;9.40;81.10
23233;DHT22;11785;49.500;8.288;2023-04-09T00:09:40;9.20;83.70
23233;DHT22;11785;49.500;8.288;2023-04-09T00:12:06;9.10;85.00
23233;DHT22;11785;49.500;8.288;2023-04-09T00:14:31;9.00;86.10
23233;DHT22;11785;49.500;8.288;2023-04-09T00:16:57;8.90;87.20
23233;DHT22;11785;49.500;8.288;2023-04-09T00:19:22;8.80;88.20
23233;DHT22;11785;49.500;8.288;2023-04-09T00:21:48;8.70;88.70
23233;DHT22;11785;49.500;8.288;2023-04-09T00:24:14;8.70;89.00
23233;DHT22;11785;49.500;8.288;2023-04-09T00:26:40;8.70;88.30
23233;DHT22;11785;49.500;8.288;2023-04-09T00:29:05;8.70;88.10
23233;DHT22;11785;49.500;8.288;2023-04-09T00:31:31;8.60;88.90
23233;DHT22;11785;49.500;8.288;2023-04-09T00:33:57;8.60;88.90
23233;DHT22;11785;49.500;8.288;2023-04-09T00:36:23;8.60;88.80
23233;DHT22;11785;49.500;8.288;2023-04-09T00:38:49;8.60;89.00
23233;DHT22;11785;49.500;8.288;2023-04-09T00:41:17;8.60;88.60
23233;DHT22;11785;49.500;8.288;2023-04-09T00:43:42;8.60;88.40
23233;DHT22;11785;49.500;8.288;2023-04-09T00:46:08;8.60;88.40
23233;DHT22;11785;49.500;8.288;2023-04-09T00:48:33;8.60;88.20
23233;DHT22;11785;49.500;8.288;2023-04-09T00:50:59;8.50;88.60
23233;DHT22;11785;49.500;8.288;2023-04-09T00:53:25;8.50;88.70
23233;DHT22;11785;49.500;8.288;2023-04-09T00:55:52;8.40;89.10
23233;DHT22;11785;49.500;8.288;2023-04-09T00:58:17;8.30;89.80
23233;DHT22;11785;49.500;8.288;2023-04-09T01:00:43;8.30;90.10
23233;DHT22;11785;49.500;8.288;2023-04-09T01:03:08;8.20;90.50
23233;DHT22;11785;49.500;8.288;2023-04-09T01:05:45;8.20;90.60
23233;DHT22;11785;49.500;8.288;2023-04-09T01:08:31;8.10;90.90
23233;DHT22;11785;49.500;8.288;2023-04-09T01:13:45;8.10;91.00
23233;DHT22;11785;49.500;8.288;2023-04-09T01:16:15;8.00;91.10
23233;DHT22;11785;49.500;8.288;2023-04-09T01:18:48;8.00;91.20
23233;DHT22;11785;49.500;8.288;2023-04-09T01:21:22;8.00;91.30
23233;DHT22;11785;49.500;8.288;2023-04-09T01:24:08;7.90;91.70
23233;DHT22;11785;49.500;8.288;2023-04-09T01:26:52;7.90;91.90
23233;DHT22;11785;49.500;8.288;2023-04-09T01:29:20;7.80;92.00
23233;DHT22;11785;49.500;8.288;2023-04-09T01:31:48;7.80;92.10
23233;DHT22;11785;49.500;8.288;2023-04-09T01:34:15;7.80;92.40
23233;DHT22;11785;49.500;8.288;2023-04-09T01:36:46;7.80;92.00
23233;DHT22;11785;49.500;8.288;2023-04-09T01:39:14;7.70;92.40
23233;DHT22;11785;49.500;8.288;2023-04-09T01:41:40;7.70;92.50
23233;DHT22;11785;49.500;8.288;2023-04-09T01:44:07;7.70;92.60
23233;DHT22;11785;49.500;8.288;2023-04-09T01:46:33;7.70;92.60
23233;DHT22;11785;49.500;8.288;2023-04-09T01:49:01;7.60;92.90
23233;DHT22;11785;49.500;8.288;2023-04-09T01:51:27;7.60;93.00
23233;DHT22;11785;49.500;8.288;2023-04-09T01:53:54;7.60;93.10
23233;DHT22;11785;49.500;8.288;2023-04-09T01:56:20;7.50;93.70
23233;DHT22;11785;49.500;8.288;2023-04-09T01:58:46;7.50;93.90
23233;DHT22;11785;49.500;8.288;2023-04-09T02:01:15;7.40;94.40
23233;DHT22;11785;49.500;8.288;2023-04-09T02:03:55;7.30;95.00
23233;DHT22;11785;49.500;8.288;2023-04-09T02:09:08;7.20;95.80
23233;DHT22;11785;49.500;8.288;2023-04-09T02:11:37;7.20;96.20
23233;DHT22;11785;49.500;8.288;2023-04-09T02:14:03;7.20;96.20
23233;DHT22;11785;49.500;8.288;2023-04-09T02:16:33;7.20;96.10
23233;DHT22;11785;49.500;8.288;2023-04-09T02:18:58;7.20;96.20
23233;DHT22;11785;49.500;8.288;2023-04-09T02:21:27;7.20;96.20
23233;DHT22;11785;49.500;8.288;2023-04-09T02:23:54;7.20;96.10
23233;DHT22;11785;49.500;8.288;2023-04-09T02:26:21;7.10;96.50
23233;DHT22;11785;49.500;8.288;2023-04-09T02:28:46;7.20;96.30
23233;DHT22;11785;49.500;8.288;2023-04-09T02:31:12;7.20;96.40
23233;DHT22;11785;49.500;8.288;2023-04-09T02:33:37;7.20;96.40
23233;DHT22;11785;49.500;8.288;2023-04-09T02:36:04;7.20;96.30
23233;DHT22;11785;49.500;8.288;2023-04-09T02:38:30;7.20;96.50
23233;DHT22;11785;49.500;8.288;2023-04-09T02:40:56;7.20;96.40
23233;DHT22;11785;49.500;8.288;2023-04-09T02:43:22;7.20;96.60
23233;DHT22;11785;49.500;8.288;2023-04-09T02:45:47;7.20;96.60
23233;DHT22;11785;49.500;8.288;2023-04-09T02:48:13;7.20;96.60
23233;DHT22;11785;49.500;8.288;2023-04-09T02:50:38;7.20;96.70
23233;DHT22;11785;49.500;8.288;2023-04-09T02:53:04;7.20;96.90
23233;DHT22;11785;49.500;8.288;2023-04-09T02:55:29;7.20;97.00
23233;DHT22;11785;49.500;8.288;2023-04-09T02:57:55;7.10;97.40
23233;DHT22;11785;49.500;8.288;2023-04-09T03:00:21;7.10;97.50
23233;DHT22;11785;49.500;8.288;2023-04-09T03:02:46;7.10;97.60
23233;DHT22;11785;49.500;8.288;2023-04-09T03:05:12;7.10;97.70
23233;DHT22;11785;49.500;8.288;2023-04-09T03:07:37;7.10;97.80
23233;DHT22;11785;49.500;8.288;2023-04-09T03:10:03;7.10;98.00
23233;DHT22;11785;49.500;8.288;2023-04-09T03:12:29;7.10;98.20
23233;DHT22;11785;49.500;8.288;2023-04-09T03:14:55;7.10;98.20
23233;DHT22;11785;49.500;8.288;2023-04-09T03:17:20;7.10;98.20
23233;DHT22;11785;49.500;8.288;2023-04-09T03:19:46;7.10;98.40
23233;DHT22;11785;49.500;8.288;2023-04-09T03:22:11;7.10;98.50
23233;DHT22;11785;49.500;8.288;2023-04-09T03:24:37;7.10;98.70
23233;DHT22;11785;49.500;8.288;2023-04-09T03:27:02;7.10;98.80
23233;DHT22;11785;49.500;8.288;2023-04-09T03:29:28;7.10;99.00
23233;DHT22;11785;49.500;8.288;2023-04-09T03:31:53;7.10;99.10
23233;DHT22;11785;49.500;8.288;2023-04-09T03:34:19;7.10;99.30
23233;DHT22;11785;49.500;8.288;2023-04-09T03:36:45;7.10;99.50
23233;DHT22;11785;49.500;8.288;2023-04-09T03:39:10;7.10;99.60
23233;DHT22;11785;49.500;8.288;2023-04-09T03:41:36;7.10;99.80
23233;DHT22;11785;49.500;8.288;2023-04-09T03:44:01;7.10;99.80
23233;DHT22;11785;49.500;8.288;2023-04-09T03:46:27;7.10;99.80
23233;DHT22;11785;49.500;8.288;2023-04-09T03:48:52;7.10;99.70
23233;DHT22;11785;49.500;8.288;2023-04-09T03:51:18;7.20;99.60
23233;DHT22;11785;49.500;8.288;2023-04-09T03:53:44;7.20;99.70
23233;DHT22;11785;49.500;8.288;2023-04-09T03:56:09;7.10;99.90
23233;DHT22;11785;49.500;8.288;2023-04-09T03:58:36;7.10;99.90
23233;DHT22;11785;49.500;8.288;2023-04-09T04:01:02;7.10;99.90
23233;DHT22;11785;49.500;8.288;2023-04-09T04:03:28;7.00;99.90
23233;DHT22;11785;49.500;8.288;2023-04-09T04:05:58;7.00;99.90
23233;DHT22;11785;49.500;8.288;2023-04-09T04:08:24;6.80;99.90
23233;DHT22;11785;49.500;8.288;2023-04-09T04:10:50;6.80;99.90
23233;DHT22;11785;49.500;8.288;2023-04-09T04:13:15;6.70;99.90
23233;DHT22;11785;49.500;8.288;2023-04-09T04:15:41;6.60;99.90
23233;DHT22;11785;49.500;8.288;2023-04-09T04:18:08;6.50;99.90
23233;DHT22;11785;49.500;8.288;2023-04-09T04:20:34;6.40;99.90
23233;DHT22;11785;49.500;8.288;2023-04-09T04:22:59;6.30;99.90
23233;DHT22;11785;49.500;8.288;2023-04-09T04:25:25;6.30;99.90
23233;DHT22;11785;49.500;8.288;2023-04-09T04:27:50;6.20;99.90
23233;DHT22;11785;49.500;8.288;2023-04-09T04:30:16;6.10;99.90
23233;DHT22;11785;49.500;8.288;2023-04-09T04:32:42;6.10;99.90
23233;DHT22;11785;49.500;8.288;2023-04-09T04:35:07;6.00;99.90
23233;DHT22;11785;49.500;8.288;2023-04-09T04:37:33;5.80;99.90
23233;DHT22;11785;49.500;8.288;2023-04-09T04:40:02;5.70;99.90
23233;DHT22;11785;49.500;8.288;2023-04-09T04:42:28;5.70;99.90
23233;DHT22;11785;49.500;8.288;2023-04-09T04:44:54;5.70;99.90
23233;DHT22;11785;49.500;8.288;2023-04-09T04:47:19;5.70;99.90
23233;DHT22;11785;49.500;8.288;2023-04-09T04:49:45;5.70;99.90
23233;DHT22;11785;49.500;8.288;2023-04-09T04:52:10;5.60;99.90
23233;DHT22;11785;49.500;8.288;2023-04-09T04:54:36;5.60;99.90
23233;DHT22;11785;49.500;8.288;2023-04-09T04:57:02;5.60;99.90
23233;DHT22;11785;49.500;8.288;2023-04-09T04:59:28;5.70;99.90
23233;DHT22;11785;49.500;8.288;2023-04-09T05:01:53;5.80;99.90
23233;DHT22;11785;49.500;8.288;2023-04-09T05:04:19;5.90;99.90
23233;DHT22;11785;49.500;8.288;2023-04-09T05:06:44;6.00;99.90
23233;DHT22;11785;49.500;8.288;2023-04-09T05:09:10;6.10;99.90
23233;DHT22;11785;49.500;8.288;2023-04-09T05:11:36;6.10;99.90
23233;DHT22;11785;49.500;8.288;2023-04-09T05:14:01;6.20;99.90
23233;DHT22;11785;49.500;8.288;2023-04-09T05:16:27;6.30;99.90
23233;DHT22;11785;49.500;8.288;2023-04-09T05:18:53;6.40;99.90
23233;DHT22;11785;49.500;8.288;2023-04-09T05:21:19;6.40;99.90
23233;DHT22;11785;49.500;8.288;2023-04-09T05:23:44;6.50;99.90
23233;DHT22;11785;49.500;8.288;2023-04-09T05:26:10;6.60;99.90
23233;DHT22;11785;49.500;8.288;2023-04-09T05:28:35;6.60;99.90
23233;DHT22;11785;49.500;8.288;2023-04-09T05:31:01;6.70;99.90
23233;DHT22;11785;49.500;8.288;2023-04-09T05:33:26;6.70;99.90
23233;DHT22;11785;49.500;8.288;2023-04-09T05:35:52;6.80;99.90
23233;DHT22;11785;49.500;8.288;2023-04-09T05:38:17;6.80;99.90
23233;DHT22;11785;49.500;8.288;2023-04-09T05:40:43;6.90;99.90
23233;DHT22;11785;49.500;8.288;2023-04-09T05:43:10;7.00;99.90
23233;DHT22;11785;49.500;8.288;2023-04-09T05:45:35;7.00;99.90
23233;DHT22;11785;49.500;8.288;2023-04-09T05:48:01;7.10;99.90
23233;DHT22;11785;49.500;8.288;2023-04-09T05:50:27;7.10;99.90
23233;DHT22;11785;49.500;8.288;2023-04-09T05:52:52;7.20;99.90
23233;DHT22;11785;49.500;8.288;2023-04-09T05:55:18;7.30;99.90
23233;DHT22;11785;49.500;8.288;2023-04-09T05:57:43;7.40;99.90
23233;DHT22;11785;49.500;8.288;2023-04-09T06:00:10;7.50;99.90
23233;DHT22;11785;49.500;8.288;2023-04-09T06:02:36;7.70;99.90
23233;DHT22;11785;49.500;8.288;2023-04-09T06:05:01;7.90;99.90
23233;DHT22;11785;49.500;8.288;2023-04-09T06:07:27;7.80;99.90
23233;DHT22;11785;49.500;8.288;2023-04-09T06:09:54;7.90;99.90
23233;DHT22;11785;49.500;8.288;2023-04-09T06:12:20;8.10;99.10
23233;DHT22;11785;49.500;8.288;2023-04-09T06:14:47;8.10;98.70
23233;DHT22;11785;49.500;8.288;2023-04-09T06:17:12;8.20;97.90
23233;DHT22;11785;49.500;8.288;2023-04-09T06:19:38;8.30;97.60
23233;DHT22;11785;49.500;8.288;2023-04-09T06:22:04;8.40;97.00
23233;DHT22;11785;49.500;8.288;2023-04-09T06:24:30;8.40;96.50
23233;DHT22;11785;49.500;8.288;2023-04-09T06:26:57;8.30;96.30
23233;DHT22;11785;49.500;8.288;2023-04-09T06:29:23;8.20;96.90
23233;DHT22;11785;49.500;8.288;2023-04-09T06:31:48;8.20;96.90
23233;DHT22;11785;49.500;8.288;2023-04-09T06:34:14;8.10;97.40
23233;DHT22;11785;49.500;8.288;2023-04-09T06:36:40;8.00;97.60
23233;DHT22;11785;49.500;8.288;2023-04-09T06:39:08;7.80;98.30
23233;DHT22;11785;49.500;8.288;2023-04-09T06:41:33;7.80;98.50
23233;DHT22;11785;49.500;8.288;2023-04-09T06:43:59;7.70;99.00
23233;DHT22;11785;49.500;8.288;2023-04-09T06:46:25;7.70;99.60
23233;DHT22;11785;49.500;8.288;2023-04-09T06:48:50;7.70;99.80
23233;DHT22;11785;49.500;8.288;2023-04-09T06:51:16;7.60;99.70
23233;DHT22;11785;49.500;8.288;2023-04-09T06:53:41;7.60;99.90
23233;DHT22;11785;49.500;8.288;2023-04-09T06:56:07;7.70;99.80
23233;DHT22;11785;49.500;8.288;2023-04-09T06:58:33;7.70;99.70
23233;DHT22;11785;49.500;8.288;2023-04-09T07:00:59;7.80;98.90
23233;DHT22;11785;49.500;8.288;2023-04-09T07:03:24;8.00;98.00
23233;DHT22;11785;49.500;8.288;2023-04-09T07:05:53;8.10;97.90
23233;DHT22;11785;49.500;8.288;2023-04-09T07:08:18;8.20;97.50
23233;DHT22;11785;49.500;8.288;2023-04-09T07:10:44;8.30;97.00
23233;DHT22;11785;49.500;8.288;2023-04-09T07:13:11;8.30;96.50
23233;DHT22;11785;49.500;8.288;2023-04-09T07:15:37;8.30;96.40
23233;DHT22;11785;49.500;8.288;2023-04-09T07:18:03;8.30;96.30
23233;DHT22;11785;49.500;8.288;2023-04-09T07:20:28;8.40;96.10
23233;DHT22;11785;49.500;8.288;2023-04-09T07:22:54;8.50;95.80
23233;DHT22;11785;49.500;8.288;2023-04-09T07:25:20;8.70;95.50
23233;DHT22;11785;49.500;8.288;2023-04-09T07:27:45;8.80;94.40
23233;DHT22;11785;49.500;8.288;2023-04-09T07:30:11;8.80;94.20
23233;DHT22;11785;49.500;8.288;2023-04-09T07:32:37;8.80;94.20
23233;DHT22;11785;49.500;8.288;2023-04-09T07:35:05;8.80;94.30
23233;DHT22;11785;49.500;8.288;2023-04-09T07:37:31;8.70;94.60
23233;DHT22;11785;49.500;8.288;2023-04-09T07:39:57;8.70;94.10
23233;DHT22;11785;49.500;8.288;2023-04-09T07:42:22;8.80;93.90
23233;DHT22;11785;49.500;8.288;2023-04-09T07:44:48;8.90;93.40
23233;DHT22;11785;49.500;8.288;2023-04-09T07:47:14;9.10;92.50
23233;DHT22;11785;49.500;8.288;2023-04-09T07:49:39;9.40;90.90
23233;DHT22;11785;49.500;8.288;2023-04-09T07:52:05;9.70;89.40
23233;DHT22;11785;49.500;8.288;2023-04-09T07:54:32;9.80;87.20
23233;DHT22;11785;49.500;8.288;2023-04-09T07:56:58;10.10;84.00
23233;DHT22;11785;49.500;8.288;2023-04-09T07:59:24;10.20;83.40
23233;DHT22;11785;49.500;8.288;2023-04-09T08:01:49;10.30;80.30
23233;DHT22;11785;49.500;8.288;2023-04-09T08:04:15;10.30;79.90
23233;DHT22;11785;49.500;8.288;2023-04-09T08:06:40;10.40;79.50
23233;DHT22;11785;49.500;8.288;2023-04-09T08:09:06;10.60;78.20
23233;DHT22;11785;49.500;8.288;2023-04-09T08:11:32;10.70;75.90
23233;DHT22;11785;49.500;8.288;2023-04-09T08:13:57;10.80;75.30
23233;DHT22;11785;49.500;8.288;2023-04-09T08:16:27;10.80;75.10
23233;DHT22;11785;49.500;8.288;2023-04-09T08:18:54;10.90;73.70
23233;DHT22;11785;49.500;8.288;2023-04-09T08:21:20;10.90;71.50
23233;DHT22;11785;49.500;8.288;2023-04-09T08:23:46;10.90;71.50
23233;DHT22;11785;49.500;8.288;2023-04-09T08:26:12;10.90;72.90
23233;DHT22;11785;49.500;8.288;2023-04-09T08:28:38;10.90;71.50
23233;DHT22;11785;49.500;8.288;2023-04-09T08:31:04;10.90;72.40
23233;DHT22;11785;49.500;8.288;2023-04-09T08:33:30;11.00;70.90
23233;DHT22;11785;49.500;8.288;2023-04-09T08:35:56;11.20;70.10
23233;DHT22;11785;49.500;8.288;2023-04-09T08:38:21;11.50;68.20
23233;DHT22;11785;49.500;8.288;2023-04-09T08:40:47;11.70;66.10
23233;DHT22;11785;49.500;8.288;2023-04-09T08:43:14;12.00;62.60
23233;DHT22;11785;49.500;8.288;2023-04-09T08:45:41;12.10;62.10
23233;DHT22;11785;49.500;8.288;2023-04-09T08:48:08;12.10;59.90
23233;DHT22;11785;49.500;8.288;2023-04-09T08:50:34;12.10;59.90
23233;DHT22;11785;49.500;8.288;2023-04-09T08:53:07;12.00;59.90
23233;DHT22;11785;49.500;8.288;2023-04-09T08:55:33;12.00;59.90
23233;DHT22;11785;49.500;8.288;2023-04-09T08:58:02;12.10;59.80
23233;DHT22;11785;49.500;8.288;2023-04-09T09:00:28;12.20;59.80
23233;DHT22;11785;49.500;8.288;2023-04-09T09:03:01;12.10;59.80
23233;DHT22;11785;49.500;8.288;2023-04-09T09:05:42;12.10;59.80
23233;DHT22;11785;49.500;8.288;2023-04-09T09:08:09;12.20;59.80
23233;DHT22;11785;49.500;8.288;2023-04-09T09:10:43;12.50;59.70
23233;DHT22;11785;49.500;8.288;2023-04-09T09:15:49;12.80;59.70
23233;DHT22;11785;49.500;8.288;2023-04-09T09:18:19;13.10;59.60
23233;DHT22;11785;49.500;8.288;2023-04-09T09:20:45;13.30;59.50
23233;DHT22;11785;49.500;8.288;2023-04-09T09:23:11;13.50;59.40
23233;DHT22;11785;49.500;8.288;2023-04-09T09:25:40;13.70;59.40
23233;DHT22;11785;49.500;8.288;2023-04-09T09:28:10;13.90;59.30
23233;DHT22;11785;49.500;8.288;2023-04-09T09:30:37;14.00;59.20
23233;DHT22;11785;49.500;8.288;2023-04-09T09:33:09;14.20;59.20
23233;DHT22;11785;49.500;8.288;2023-04-09T09:35:52;14.50;59.10
23233;DHT22;11785;49.500;8.288;2023-04-09T09:38:19;14.50;59.00
23233;DHT22;11785;49.500;8.288;2023-04-09T09:40:45;14.40;59.10
23233;DHT22;11785;49.500;8.288;2023-04-09T09:43:12;14.50;59.00
23233;DHT22;11785;49.500;8.288;2023-04-09T09:45:39;14.60;59.00
23233;DHT22;11785;49.500;8.288;2023-04-09T09:48:05;14.70;59.00
23233;DHT22;11785;49.500;8.288;2023-04-09T09:50:34;14.90;58.80
23233;DHT22;11785;49.500;8.288;2023-04-09T09:53:06;15.10;58.90
23233;DHT22;11785;49.500;8.288;2023-04-09T09:55:36;15.30;58.80
23233;DHT22;11785;49.500;8.288;2023-04-09T09:58:15;15.40;58.80
23233;DHT22;11785;49.500;8.288;2023-04-09T10:00:51;15.60;58.70
23233;DHT22;11785;49.500;8.288;2023-04-09T10:03:24;15.90;58.70
23233;DHT22;11785;49.500;8.288;2023-04-09T10:05:51;16.10;58.50
23233;DHT22;11785;49.500;8.288;2023-04-09T10:08:18;16.10;58.50
23233;DHT22;11785;49.500;8.288;2023-04-09T10:10:45;16.20;58.60
23233;DHT22;11785;49.500;8.288;2023-04-09T10:13:17;16.20;58.40
23233;DHT22;11785;49.500;8.288;2023-04-09T10:15:46;15.30;58.70
23233;DHT22;11785;49.500;8.288;2023-04-09T10:18:12;15.40;58.70
23233;DHT22;11785;49.500;8.288;2023-04-09T10:20:55;15.60;58.60
23233;DHT22;11785;49.500;8.288;2023-04-09T10:23:30;15.70;58.60
23233;DHT22;11785;49.500;8.288;2023-04-09T10:25:57;16.30;58.40
23233;DHT22;11785;49.500;8.288;2023-04-09T10:28:22;16.40;58.20
23233;DHT22;11785;49.500;8.288;2023-04-09T10:30:48;16.20;58.30
23233;DHT22;11785;49.500;8.288;2023-04-09T10:33:15;15.70;58.30
23233;DHT22;11785;49.500;8.288;2023-04-09T10:35:46;15.60;58.40
23233;DHT22;11785;49.500;8.288;2023-04-09T10:38:13;15.70;58.40
23233;DHT22;11785;49.500;8.288;2023-04-09T10:40:41;16.10;58.20
23233;DHT22;11785;49.500;8.288;2023-04-09T10:43:11;16.30;58.10
23233;DHT22;11785;49.500;8.288;2023-04-09T10:45:39;16.50;58.10
23233;DHT22;11785;49.500;8.288;2023-04-09T10:48:13;16.30;58.10
23233;DHT22;11785;49.500;8.288;2023-04-09T10:50:42;16.10;58.20
23233;DHT22;11785;49.500;8.288;2023-04-09T10:53:24;16.00;58.10
23233;DHT22;11785;49.500;8.288;2023-04-09T10:55:53;16.20;58.20
23233;DHT22;11785;49.500;8.288;2023-04-09T10:58:19;16.10;58.10
23233;DHT22;11785;49.500;8.288;2023-04-09T11:00:46;15.70;58.20
23233;DHT22;11785;49.500;8.288;2023-04-09T11:06:00;15.70;58.30
23233;DHT22;11785;49.500;8.288;2023-04-09T11:08:31;15.80;58.30
23233;DHT22;11785;49.500;8.288;2023-04-09T11:10:57;15.80;58.20
23233;DHT22;11785;49.500;8.288;2023-04-09T11:13:25;16.00;58.10
23233;DHT22;11785;49.500;8.288;2023-04-09T11:15:51;16.00;58.00
23233;DHT22;11785;49.500;8.288;2023-04-09T11:18:25;16.10;58.10
23233;DHT22;11785;49.500;8.288;2023-04-09T11:21:00;16.50;58.00
23233;DHT22;11785;49.500;8.288;2023-04-09T11:23:27;17.00;57.90
23233;DHT22;11785;49.500;8.288;2023-04-09T11:25:53;17.40;57.80
23233;DHT22;11785;49.500;8.288;2023-04-09T11:28:19;17.40;57.60
23233;DHT22;11785;49.500;8.288;2023-04-09T11:30:46;16.80;57.80
23233;DHT22;11785;49.500;8.288;2023-04-09T11:33:12;16.70;57.80
23233;DHT22;11785;49.500;8.288;2023-04-09T11:35:38;16.70;57.90
23233;DHT22;11785;49.500;8.288;2023-04-09T11:38:10;16.60;57.80
23233;DHT22;11785;49.500;8.288;2023-04-09T11:40:39;16.40;57.90
23233;DHT22;11785;49.500;8.288;2023-04-09T11:43:11;16.10;57.90
23233;DHT22;11785;49.500;8.288;2023-04-09T11:45:37;15.70;58.10
23233;DHT22;11785;49.500;8.288;2023-04-09T11:48:03;15.60;58.10
23233;DHT22;11785;49.500;8.288;2023-04-09T11:50:29;15.60;58.10
23233;DHT22;11785;49.500;8.288;2023-04-09T11:52:56;15.80;58.00
23233;DHT22;11785;49.500;8.288;2023-04-09T11:55:27;16.20;57.90
23233;DHT22;11785;49.500;8.288;2023-04-09T11:57:56;16.30;57.80
23233;DHT22;11785;49.500;8.288;2023-04-09T12:00:22;16.30;57.80
23233;DHT22;11785;49.500;8.288;2023-04-09T12:02:50;16.30;57.90
23233;DHT22;11785;49.500;8.288;2023-04-09T12:05:23;17.70;57.60
23233;DHT22;11785;49.500;8.288;2023-04-09T12:07:50;19.30;57.20
23233;DHT22;11785;49.500;8.288;2023-04-09T12:10:16;19.70;57.00
23233;DHT22;11785;49.500;8.288;2023-04-09T12:12:46;19.60;57.00
23233;DHT22;11785;49.500;8.288;2023-04-09T12:15:20;19.60;57.00
23233;DHT22;11785;49.500;8.288;2023-04-09T12:17:48;19.30;57.00
23233;DHT22;11785;49.500;8.288;2023-04-09T12:20:13;19.00;57.10
23233;DHT22;11785;49.500;8.288;2023-04-09T12:22:50;18.80;57.10
23233;DHT22;11785;49.500;8.288;2023-04-09T12:25:15;18.60;57.20
23233;DHT22;11785;49.500;8.288;2023-04-09T12:27:41;18.40;57.30
23233;DHT22;11785;49.500;8.288;2023-04-09T12:30:07;18.10;57.30
23233;DHT22;11785;49.500;8.288;2023-04-09T12:32:32;18.00;57.40
23233;DHT22;11785;49.500;8.288;2023-04-09T12:34:58;18.00;57.40
23233;DHT22;11785;49.500;8.288;2023-04-09T12:37:23;18.00;57.40
23233;DHT22;11785;49.500;8.288;2023-04-09T12:39:49;18.00;57.40
23233;DHT22;11785;49.500;8.288;2023-04-09T12:42:15;18.00;57.40
23233;DHT22;11785;49.500;8.288;2023-04-09T12:44:40;17.90;57.30
23233;DHT22;11785;49.500;8.288;2023-04-09T12:47:06;17.50;57.50
23233;DHT22;11785;49.500;8.288;2023-04-09T12:49:32;17.90;57.30
23233;DHT22;11785;49.500;8.288;2023-04-09T12:51:57;18.60;57.10
23233;DHT22;11785;49.500;8.288;2023-04-09T12:54:23;19.00;56.90
23233;DHT22;11785;49.500;8.288;2023-04-09T12:56:48;19.40;56.90
23233;DHT22;11785;49.500;8.288;2023-04-09T12:59:14;19.40;56.90
23233;DHT22;11785;49.500;8.288;2023-04-09T13:01:39;19.70;56.80
23233;DHT22;11785;49.500;8.288;2023-04-09T13:04:05;20.60;56.60
23233;DHT22;11785;49.500;8.288;2023-04-09T13:06:30;21.60;56.30
23233;DHT22;11785;49.500;8.288;2023-04-09T13:08:56;22.80;56.00
23233;DHT22;11785;49.500;8.288;2023-04-09T13:11:22;23.00;55.90
23233;DHT22;11785;49.500;8.288;2023-04-09T13:13:47;23.50;55.80
23233;DHT22;11785;49.500;8.288;2023-04-09T13:16:13;24.30;55.60
23233;DHT22;11785;49.500;8.288;2023-04-09T13:18:39;25.00;52.50
23233;DHT22;11785;49.500;8.288;2023-04-09T13:21:04;27.00;47.60
23233;DHT22;11785;49.500;8.288;2023-04-09T13:23:30;25.40;47.20
23233;DHT22;11785;49.500;8.288;2023-04-09T13:25:55;24.10;55.30
23233;DHT22;11785;49.500;8.288;2023-04-09T13:28:21;22.20;55.80
23233;DHT22;11785;49.500;8.288;2023-04-09T13:30:47;21.50;56.00
23233;DHT22;11785;49.500;8.288;2023-04-09T13:33:12;20.40;56.30
23233;DHT22;11785;49.500;8.288;2023-04-09T13:35:38;19.40;56.50
23233;DHT22;11785;49.500;8.288;2023-04-09T13:38:03;20.20;56.30
23233;DHT22;11785;49.500;8.288;2023-04-09T13:40:29;23.00;55.70
23233;DHT22;11785;49.500;8.288;2023-04-09T13:42:54;24.70;55.20
23233;DHT22;11785;49.500;8.288;2023-04-09T13:45:20;26.20;47.40
23233;DHT22;11785;49.500;8.288;2023-04-09T13:47:48;26.70;47.60
23233;DHT22;11785;49.500;8.288;2023-04-09T13:50:13;26.40;47.60
23233;DHT22;11785;49.500;8.288;2023-04-09T13:52:39;27.60;48.00
23233;DHT22;11785;49.500;8.288;2023-04-09T13:55:06;27.70;48.10
23233;DHT22;11785;49.500;8.288;2023-04-09T13:57:31;28.00;48.30
23233;DHT22;11785;49.500;8.288;2023-04-09T13:59:57;26.10;47.70
23233;DHT22;11785;49.500;8.288;2023-04-09T14:02:26;25.40;47.40
23233;DHT22;11785;49.500;8.288;2023-04-09T14:04:52;26.70;47.80
23233;DHT22;11785;49.500;8.288;2023-04-09T14:07:18;28.00;48.20
23233;DHT22;11785;49.500;8.288;2023-04-09T14:09:43;26.80;47.90
23233;DHT22;11785;49.500;8.288;2023-04-09T14:12:09;27.40;48.00
23233;DHT22;11785;49.500;8.288;2023-04-09T14:14:35;27.80;48.20
23233;DHT22;11785;49.500;8.288;2023-04-09T14:17:00;28.30;48.40
23233;DHT22;11785;49.500;8.288;2023-04-09T14:19:26;28.40;48.40
23233;DHT22;11785;49.500;8.288;2023-04-09T14:21:53;29.40;48.70
23233;DHT22;11785;49.500;8.288;2023-04-09T14:24:19;30.00;49.00
23233;DHT22;11785;49.500;8.288;2023-04-09T14:26:47;29.50;48.80
23233;DHT22;11785;49.500;8.288;2023-04-09T14:29:13;29.40;48.90
23233;DHT22;11785;49.500;8.288;2023-04-09T14:31:38;29.40;48.80
23233;DHT22;11785;49.500;8.288;2023-04-09T14:34:06;30.50;49.10
23233;DHT22;11785;49.500;8.288;2023-04-09T14:36:32;30.10;49.10
23233;DHT22;11785;49.500;8.288;2023-04-09T14:38:58;30.50;49.10
23233;DHT22;11785;49.500;8.288;2023-04-09T14:41:24;30.90;49.30
23233;DHT22;11785;49.500;8.288;2023-04-09T14:43:50;30.30;49.10
23233;DHT22;11785;49.500;8.288;2023-04-09T14:46:15;30.00;49.00
23233;DHT22;11785;49.500;8.288;2023-04-09T14:48:41;27.90;48.40
23233;DHT22;11785;49.500;8.288;2023-04-09T14:51:10;27.50;48.20
23233;DHT22;11785;49.500;8.288;2023-04-09T14:53:36;28.10;48.40
23233;DHT22;11785;49.500;8.288;2023-04-09T14:56:02;27.00;48.10
23233;DHT22;11785;49.500;8.288;2023-04-09T14:58:28;24.80;54.90
23233;DHT22;11785;49.500;8.288;2023-04-09T15:00:53;22.80;55.40
23233;DHT22;11785;49.500;8.288;2023-04-09T15:03:19;21.60;55.70
23233;DHT22;11785;49.500;8.288;2023-04-09T15:05:46;21.60;55.70
23233;DHT22;11785;49.500;8.288;2023-04-09T15:08:12;22.60;55.40
23233;DHT22;11785;49.500;8.288;2023-04-09T15:10:38;23.20;55.30
23233;DHT22;11785;49.500;8.288;2023-04-09T15:13:03;24.70;55.00
23233;DHT22;11785;49.500;8.288;2023-04-09T15:15:29;25.50;47.50
23233;DHT22;11785;49.500;8.288;2023-04-09T15:17:55;24.60;54.90
23233;DHT22;11785;49.500;8.288;2023-04-09T15:20:21;23.50;55.20
23233;DHT22;11785;49.500;8.288;2023-04-09T15:22:46;23.50;55.20
23233;DHT22;11785;49.500;8.288;2023-04-09T15:25:12;23.10;55.30
23233;DHT22;11785;49.500;8.288;2023-04-09T15:27:38;23.50;55.20
23233;DHT22;11785;49.500;8.288;2023-04-09T15:30:04;23.60;55.20
23233;DHT22;11785;49.500;8.288;2023-04-09T15:32:30;23.40;55.40
23233;DHT22;11785;49.500;8.288;2023-04-09T15:34:56;23.00;55.30
23233;DHT22;11785;49.500;8.288;2023-04-09T15:37:22;22.80;55.40
23233;DHT22;11785;49.500;8.288;2023-04-09T15:39:48;22.10;55.60
23233;DHT22;11785;49.500;8.288;2023-04-09T15:42:13;23.20;55.30
23233;DHT22;11785;49.500;8.288;2023-04-09T15:44:44;23.00;55.30
23233;DHT22;11785;49.500;8.288;2023-04-09T15:47:10;22.20;55.50